Time;durP1;ratioP1;P1;durP2;ratioP2;P2;SDS_P1;SDS_P2;PMS_P1;PMS_P2;Temp;Humidity;BMP_temperature;BMP_pressure;BME280_temperature;BME280_humidity;BME280_pressure;Samples;Min_cycle;Max_cycle;Signal;HPM_P1;HPM_P2
2022/01/12 00:00:07;;;;;;;28.65;16.17;;;5.10;82.70;;;;;;10946957;32;20015;-74
2022/01/12 00:06:12;;;;;;;25.15;13.62;;;4.90;82.70;;;;;;10946668;32;20173;-74
2022/01/12 00:12:14;;;;;;;17.08;10.43;;;5.00;82.60;;;;;;10933225;32;20014;-74
2022/01/12 00:18:15;;;;;;;15.98;9.43;;;4.80;82.70;;;;;;10946368;32;20046;-74
2022/01/12 00:24:18;;;;;;;17.33;11.35;;;4.60;82.60;;;;;;10942233;32;20400;-74
2022/01/12 00:36:41;;;;;;;17.30;10.02;;;4.80;82.50;;;;;;10945791;32;20027;-74
2022/01/12 00:42:43;;;;;;;20.42;13.07;;;4.70;81.70;;;;;;10941026;32;20036;-73
2022/01/12 00:48:46;;;;;;;21.00;12.90;;;4.70;82.50;;;;;;10945411;32;20327;-73
2022/01/12 00:54:49;;;;;;;14.63;9.50;;;4.90;82.80;;;;;;10941960;32;20046;-74
2022/01/12 01:00:51;;;;;;;17.75;11.50;;;5.00;82.30;;;;;;10944722;32;20053;-74
2022/01/12 01:07:20;;;;;;;19.08;11.25;;;4.70;80.00;;;;;;10926860;32;20054;-74
2022/01/12 01:13:33;;;;;;;20.15;12.25;;;4.30;82.10;;;;;;10939487;32;20058;-74
2022/01/12 01:25:57;;;;;;;14.05;10.07;;;4.90;82.50;;;;;;10939560;32;20026;-70
2022/01/12 01:32:00;;;;;;;16.60;11.02;;;5.10;83.10;;;;;;10930128;32;20066;-70
2022/01/12 01:38:04;;;;;;;20.20;13.82;;;5.20;83.10;;;;;;10943403;32;20015;-70
2022/01/12 01:56:36;;;;;;;23.35;14.35;;;4.70;82.40;;;;;;10980389;32;20027;-70
2022/01/12 02:02:39;;;;;;;22.65;12.80;;;4.80;82.20;;;;;;10976295;32;20395;-70
2022/01/12 02:08:41;;;;;;;21.37;12.70;;;5.10;81.80;;;;;;10979931;32;20049;-70
2022/01/12 02:14:45;;;;;;;15.68;10.50;;;5.00;81.20;;;;;;10975605;32;20019;-70
2022/01/12 02:39:56;;;;;;;23.92;13.52;;;4.20;80.80;;;;;;10979132;32;20045;-70
2022/01/12 02:58:44;;;;;;;23.25;13.38;;;5.20;82.10;;;;;;10977493;32;20387;-70
2022/01/12 03:11:18;;;;;;;20.00;14.30;;;5.70;80.50;;;;;;10900352;32;20019;-74
2022/01/12 03:17:22;;;;;;;28.33;14.23;;;5.70;80.70;;;;;;10899422;32;20046;-74
2022/01/12 03:23:24;;;;;;;25.83;14.75;;;5.70;81.00;;;;;;10896445;32;20377;-74
2022/01/12 03:29:26;;;;;;;23.55;14.15;;;5.60;81.70;;;;;;10900214;32;20028;-70
2022/01/12 03:35:48;;;;;;;23.80;16.05;;;5.60;81.40;;;;;;10891941;32;20050;-70
2022/01/12 03:42:16;;;;;;;21.23;13.32;;;5.40;80.60;;;;;;10891854;32;20508;-70
2022/01/12 03:48:56;;;;;;;21.00;12.85;;;4.60;79.70;;;;;;10787970;32;20063;-70
2022/01/12 03:54:59;;;;;;;20.58;13.52;;;4.10;81.60;;;;;;10789578;33;20025;-70
2022/01/12 04:01:01;;;;;;;19.23;14.52;;;4.50;81.90;;;;;;10794527;33;20043;-70
2022/01/12 04:13:25;;;;;;;25.40;14.90;;;4.60;80.80;;;;;;10794864;33;20025;-74
2022/01/12 04:19:37;;;;;;;21.00;13.68;;;4.00;81.80;;;;;;10794027;33;20029;-74
2022/01/12 04:25:39;;;;;;;28.67;18.83;;;4.20;81.90;;;;;;10942906;32;20367;-74
2022/01/12 04:31:42;;;;;;;23.35;14.82;;;4.10;81.40;;;;;;10969998;32;20068;-74
2022/01/12 04:37:45;;;;;;;24.92;16.15;;;3.70;81.90;;;;;;10983079;32;20045;-73
2022/01/12 04:43:48;;;;;;;20.42;13.45;;;3.90;82.80;;;;;;10977902;32;20039;-74
2022/01/12 04:49:52;;;;;;;17.95;11.10;;;3.90;82.30;;;;;;10981380;32;20027;-74
2022/01/12 04:55:55;;;;;;;14.68;10.18;;;3.40;81.70;;;;;;10982364;32;20034;-74
2022/01/12 05:02:11;;;;;;;17.00;11.95;;;3.20;82.50;;;;;;10982005;32;20057;-74
2022/01/12 05:14:23;;;;;;;22.27;12.95;;;2.80;82.20;;;;;;10978205;32;20421;-74
2022/01/12 05:20:26;;;;;;;17.55;11.38;;;2.50;82.20;;;;;;10981543;32;20049;-74
2022/01/12 05:26:29;;;;;;;27.35;19.27;;;2.40;82.90;;;;;;10981251;32;20327;-74
2022/01/12 05:32:48;;;;;;;20.62;14.65;;;2.50;82.80;;;;;;10967641;32;20035;-74
2022/01/12 05:39:07;;;;;;;24.25;15.95;;;3.20;82.70;;;;;;10978271;32;20023;-74
2022/01/12 05:45:10;;;;;;;26.25;16.05;;;3.60;81.50;;;;;;10980574;32;20052;-74
2022/01/12 05:51:22;;;;;;;22.75;16.90;;;3.10;80.90;;;;;;10980301;32;20432;-74
2022/01/12 05:57:26;;;;;;;23.65;15.30;;;2.60;82.10;;;;;;10979859;32;20426;-74
2022/01/12 06:03:28;;;;;;;27.75;19.67;;;3.20;82.10;;;;;;10966352;32;20023;-74
2022/01/12 06:09:31;;;;;;;26.08;17.45;;;3.40;81.20;;;;;;10975462;32;20066;-74
2022/01/12 06:15:33;;;;;;;29.00;19.77;;;3.10;80.60;;;;;;10979490;32;20057;-73
2022/01/12 06:21:36;;;;;;;28.87;20.58;;;2.60;81.00;;;;;;10978892;32;20425;-74
2022/01/12 06:27:48;;;;;;;24.73;17.05;;;3.10;81.80;;;;;;10979160;32;20018;-74
2022/01/12 06:33:50;;;;;;;23.90;16.92;;;3.70;80.80;;;;;;10958876;32;20066;-74
2022/01/12 06:39:52;;;;;;;25.83;19.40;;;3.20;80.20;;;;;;10939515;32;20027;-74
2022/01/12 06:45:56;;;;;;;31.77;22.77;;;3.60;81.80;;;;;;10938210;32;20069;-73
2022/01/12 06:52:00;;;;;;;28.75;21.05;;;4.20;81.70;;;;;;10937615;32;20027;-74
2022/01/12 06:58:02;;;;;;;35.70;22.08;;;4.30;80.30;;;;;;10941098;32;20022;-74
2022/01/12 07:04:05;;;;;;;35.53;23.30;;;4.40;80.50;;;;;;10940012;32;20057;-74
2022/01/12 07:10:09;;;;;;;32.28;21.00;;;4.60;80.00;;;;;;10943615;32;20057;-74
2022/01/12 07:16:11;;;;;;;28.75;20.27;;;4.30;80.30;;;;;;10941240;32;20023;-72
2022/01/12 07:22:15;;;;;;;27.27;17.92;;;4.00;79.70;;;;;;10953927;32;20328;-70
2022/01/12 07:28:18;;;;;;;23.65;17.70;;;3.90;80.50;;;;;;10958426;32;20331;-71
2022/01/12 07:34:20;;;;;;;22.37;16.08;;;4.20;80.40;;;;;;10939552;32;20439;-71
2022/01/12 07:40:23;;;;;;;18.00;13.43;;;4.30;80.80;;;;;;10932680;32;20054;-71
2022/01/12 07:46:25;;;;;;;18.25;13.73;;;4.60;80.70;;;;;;10947209;32;20039;-71
2022/01/12 07:52:30;;;;;;;17.30;12.43;;;4.80;80.40;;;;;;10947204;32;20104;-71
2022/01/12 07:58:32;;;;;;;18.58;14.05;;;4.90;80.10;;;;;;10960640;32;20030;-71
2022/01/12 08:04:35;;;;;;;21.50;12.15;;;5.00;80.10;;;;;;10984241;32;20023;-71
2022/01/12 08:10:37;;;;;;;20.50;14.43;;;4.70;79.70;;;;;;10984108;32;20045;-71
2022/01/12 08:16:40;;;;;;;17.65;13.05;;;4.90;80.50;;;;;;10984155;32;20010;-71
2022/01/12 08:22:42;;;;;;;18.12;14.60;;;5.30;80.40;;;;;;10983449;32;20034;-71
2022/01/12 08:28:45;;;;;;;19.23;14.00;;;5.50;80.00;;;;;;10979060;32;20023;-72
2022/01/12 08:34:47;;;;;;;22.85;14.45;;;5.70;79.60;;;;;;10983184;32;20056;-72
2022/01/12 08:40:49;;;;;;;18.85;13.55;;;5.70;79.40;;;;;;10969770;32;20422;-72
2022/01/12 08:46:51;;;;;;;17.83;11.63;;;5.80;79.50;;;;;;10982583;32;20057;-72
2022/01/12 08:52:55;;;;;;;17.27;13.68;;;5.80;79.30;;;;;;10982694;32;20045;-71
2022/01/12 08:58:57;;;;;;;14.77;10.13;;;5.70;79.90;;;;;;10982396;32;20053;-72
2022/01/12 09:04:59;;;;;;;24.40;15.68;;;5.60;79.00;;;;;;10982013;32;20429;-72
2022/01/12 09:11:02;;;;;;;25.00;15.98;;;5.10;80.30;;;;;;10982053;32;20348;-72
2022/01/12 09:17:17;;;;;;;21.65;16.52;;;5.40;80.80;;;;;;10981741;32;20023;-72
2022/01/12 09:23:20;;;;;;;18.58;12.60;;;5.70;80.30;;;;;;10981496;32;20048;-72
2022/01/12 09:29:23;;;;;;;20.80;12.25;;;5.70;79.30;;;;;;10981293;32;20019;-72
2022/01/12 09:35:27;;;;;;;15.98;11.02;;;5.40;80.30;;;;;;10980601;32;20027;-72
2022/01/12 09:41:29;;;;;;;15.70;10.80;;;5.20;80.10;;;;;;10980082;32;20053;-73
2022/01/12 09:47:32;;;;;;;17.05;11.10;;;5.00;80.10;;;;;;10982160;27;20073;-72
2022/01/12 09:53:37;;;;;;;19.00;12.45;;;4.90;80.50;;;;;;10965000;32;20045;-72
2022/01/12 09:59:39;;;;;;;15.82;10.25;;;5.20;81.30;;;;;;10980329;32;20425;-72
2022/01/12 10:05:41;;;;;;;16.92;11.82;;;5.20;80.90;;;;;;10978277;32;20063;-72
2022/01/12 10:11:57;;;;;;;16.67;11.27;;;5.40;81.80;;;;;;10978271;32;20023;-72
2022/01/12 10:18:03;;;;;;;14.02;9.77;;;5.80;80.90;;;;;;10959967;32;20391;-72
2022/01/12 10:24:09;;;;;;;14.63;8.65;;;5.70;81.00;;;;;;10961815;32;20007;-71
2022/01/12 10:30:26;;;;;;;16.73;11.20;;;6.00;81.90;;;;;;10956256;32;20074;-71
2022/01/12 10:36:39;;;;;;;17.48;10.32;;;6.40;81.50;;;;;;10962872;32;20034;-71
2022/01/12 10:42:44;;;;;;;15.05;8.85;;;6.60;81.60;;;;;;10937489;32;20387;-70
2022/01/12 10:48:48;;;;;;;19.95;11.30;;;6.40;80.40;;;;;;10948803;32;20026;-70
2022/01/12 10:54:53;;;;;;;15.38;10.63;;;6.60;80.70;;;;;;10951061;32;20034;-71
2022/01/12 11:00:57;;;;;;;19.37;12.65;;;6.50;80.60;;;;;;10963780;32;20061;-71
2022/01/12 11:07:00;;;;;;;12.63;8.30;;;6.60;81.10;;;;;;10986439;32;20026;-71
2022/01/12 11:13:02;;;;;;;18.35;11.85;;;6.70;81.50;;;;;;10970178;32;20034;-70
2022/01/12 11:19:07;;;;;;;15.45;9.27;;;7.10;80.80;;;;;;10985800;32;20023;-71
2022/01/12 11:25:28;;;;;;;15.63;9.35;;;7.10;79.30;;;;;;10985733;32;20052;-71
2022/01/12 11:31:39;;;;;;;14.93;8.02;;;7.20;78.30;;;;;;10984160;32;20354;-71
2022/01/12 11:37:48;;;;;;;16.08;7.72;;;7.40;78.20;;;;;;10984916;32;20054;-71
2022/01/12 11:43:59;;;;;;;15.63;7.70;;;7.50;78.00;;;;;;10984919;32;20045;-73
2022/01/12 11:50:11;;;;;;;10.05;6.55;;;7.70;77.90;;;;;;10980498;32;20186;-72
2022/01/12 11:56:26;;;;;;;10.75;6.53;;;7.90;75.70;;;;;;10984207;32;20053;-72
2022/01/12 12:02:31;;;;;;;10.65;6.18;;;7.90;75.90;;;;;;10979709;32;20026;-73
2022/01/12 12:08:34;;;;;;;14.10;9.02;;;8.10;75.90;;;;;;10983587;32;20027;-71
2022/01/12 12:14:36;;;;;;;13.30;8.40;;;8.20;75.40;;;;;;10982741;32;20049;-71
2022/01/12 12:20:41;;;;;;;17.48;9.13;;;8.10;74.80;;;;;;10971179;32;20058;-70
2022/01/12 12:26:51;;;;;;;9.07;6.93;;;7.90;73.90;;;;;;10941678;32;20057;-70
2022/01/12 12:33:08;;;;;;;12.05;7.90;;;7.90;74.80;;;;;;10943471;32;20031;-73
2022/01/12 12:39:13;;;;;;;13.20;8.98;;;7.90;73.30;;;;;;10945734;32;20039;-73
2022/01/12 12:45:16;;;;;;;10.43;7.28;;;7.90;72.50;;;;;;10940378;32;20019;-73
2022/01/12 12:51:18;;;;;;;13.32;7.22;;;7.90;70.30;;;;;;10945406;32;20030;-73
2022/01/12 12:57:21;;;;;;;10.52;5.53;;;7.80;69.80;;;;;;10942622;32;20023;-73
2022/01/12 13:03:24;;;;;;;10.82;6.28;;;7.90;71.10;;;;;;10942975;32;20355;-73
2022/01/12 13:09:26;;;;;;;7.97;4.68;;;8.10;71.40;;;;;;10943837;32;20034;-73
2022/01/12 13:15:30;;;;;;;10.30;5.53;;;8.10;71.10;;;;;;10944443;32;20035;-73
2022/01/12 13:21:36;;;;;;;10.55;5.18;;;8.20;71.90;;;;;;10944216;32;20020;-73
2022/01/12 13:27:40;;;;;;;7.93;4.50;;;8.20;71.80;;;;;;10944009;32;20027;-73
2022/01/12 13:33:45;;;;;;;7.57;3.97;;;8.40;72.80;;;;;;10943254;32;20320;-72
2022/01/12 13:40:01;;;;;;;9.77;6.68;;;8.70;73.20;;;;;;10942268;32;20027;-73
2022/01/12 13:46:15;;;;;;;12.05;6.25;;;8.70;71.70;;;;;;10943032;32;20051;-73
2022/01/12 13:52:19;;;;;;;7.03;3.80;;;8.80;72.90;;;;;;10943025;32;20019;-73
2022/01/12 13:58:27;;;;;;;6.62;4.43;;;8.70;72.90;;;;;;10937860;32;20035;-73
2022/01/12 14:04:41;;;;;;;5.20;3.03;;;8.80;73.70;;;;;;10942181;32;20030;-73
2022/01/12 14:10:52;;;;;;;8.77;4.65;;;8.80;73.00;;;;;;10941617;32;20031;-73
2022/01/12 14:16:54;;;;;;;7.85;4.87;;;8.80;72.60;;;;;;10941685;32;20050;-73
2022/01/12 14:23:04;;;;;;;10.43;5.93;;;8.80;72.70;;;;;;10942072;32;20027;-73
2022/01/12 14:29:11;;;;;;;11.45;5.90;;;9.20;71.30;;;;;;10941677;32;20053;-73
2022/01/12 14:35:16;;;;;;;8.63;4.78;;;9.30;68.90;;;;;;10937339;32;20068;-73
2022/01/12 14:41:19;;;;;;;16.00;7.25;;;9.30;68.20;;;;;;10935352;32;20422;-73
2022/01/12 14:47:21;;;;;;;16.95;7.25;;;9.80;67.50;;;;;;10497115;32;12230818;-73
2022/01/12 14:53:24;;;;;;;5.70;3.83;;;9.80;67.30;;;;;;10887886;32;20073;-72
2022/01/12 14:59:27;;;;;;;8.23;4.65;;;9.30;68.40;;;;;;10900764;32;20031;-73
2022/01/12 15:05:30;;;;;;;8.18;4.97;;;9.00;69.30;;;;;;10899650;32;20040;-73
2022/01/12 15:11:39;;;;;;;7.05;3.47;;;8.70;70.70;;;;;;10950697;32;20023;-73
2022/01/12 15:17:42;;;;;;;6.65;3.17;;;8.70;71.00;;;;;;10979002;32;20050;-72
2022/01/12 15:23:44;;;;;;;9.02;5.25;;;8.70;72.30;;;;;;10979179;32;20022;-72
2022/01/12 15:29:47;;;;;;;10.88;5.80;;;9.40;73.40;;;;;;10976577;32;20072;-73
2022/01/12 15:35:49;;;;;;;11.93;6.28;;;9.50;74.10;;;;;;10968181;32;20035;-73
2022/01/12 15:41:52;;;;;;;10.38;6.43;;;9.10;75.00;;;;;;10985410;32;20377;-70
2022/01/12 15:47:55;;;;;;;12.13;7.25;;;8.70;75.90;;;;;;10985233;32;20465;-70
2022/01/12 15:53:57;;;;;;;9.68;6.30;;;8.50;76.60;;;;;;10983296;32;20026;-70
2022/01/12 16:00:01;;;;;;;9.70;6.93;;;8.20;76.90;;;;;;10984770;32;20035;-70
2022/01/12 16:06:05;;;;;;;9.40;5.50;;;8.10;77.30;;;;;;10970705;32;20400;-70
2022/01/12 16:12:09;;;;;;;12.73;6.93;;;7.80;77.60;;;;;;10984247;32;20018;-70
2022/01/12 16:18:12;;;;;;;12.73;7.00;;;7.60;78.30;;;;;;10963032;32;20127;-70
2022/01/12 16:24:16;;;;;;;9.82;7.00;;;7.50;78.70;;;;;;10941789;32;20027;-70
2022/01/12 16:30:56;;;;;;;11.20;7.25;;;7.50;78.90;;;;;;10932464;32;20034;-70
2022/01/12 16:37:02;;;;;;;14.43;8.73;;;7.40;78.80;;;;;;10756842;33;20033;-70
2022/01/12 16:43:05;;;;;;;13.95;8.98;;;7.30;79.00;;;;;;10751739;33;20466;-70
2022/01/12 16:49:08;;;;;;;15.98;9.75;;;7.20;79.10;;;;;;10755830;33;20376;-70
2022/01/12 16:55:10;;;;;;;15.60;9.43;;;7.20;79.10;;;;;;10756554;33;20097;-70
2022/01/12 17:01:15;;;;;;;15.75;10.55;;;7.00;79.10;;;;;;10752225;33;20024;-70
2022/01/12 17:07:18;;;;;;;14.48;8.68;;;7.00;79.10;;;;;;10755886;33;20048;-70
2022/01/12 17:13:20;;;;;;;20.02;14.35;;;6.90;79.10;;;;;;10895597;32;20011;-70
2022/01/12 17:19:25;;;;;;;26.40;13.73;;;6.80;79.20;;;;;;10927307;32;20394;-70
2022/01/12 17:25:29;;;;;;;20.80;12.00;;;6.80;79.20;;;;;;10943672;32;20061;-70
2022/01/12 17:31:34;;;;;;;18.65;10.65;;;6.70;79.20;;;;;;10943920;32;20385;-70
2022/01/12 17:37:36;;;;;;;21.40;14.70;;;6.60;79.20;;;;;;10965898;32;20046;-70
2022/01/12 17:43:38;;;;;;;14.95;10.20;;;6.60;79.10;;;;;;10944043;27;20022;-70
2022/01/12 17:56:10;;;;;;;17.67;12.52;;;6.40;78.90;;;;;;10865042;32;20050;-70
2022/01/12 18:02:13;;;;;;;22.25;14.65;;;6.30;78.80;;;;;;10862894;32;20464;-70
2022/01/12 18:08:15;;;;;;;19.00;13.30;;;6.20;78.90;;;;;;10861566;32;20053;-70
2022/01/12 18:14:20;;;;;;;20.02;13.18;;;6.10;79.10;;;;;;10861819;32;20078;-70
2022/01/12 18:20:22;;;;;;;18.08;13.80;;;6.10;79.20;;;;;;10863412;32;20055;-70
2022/01/12 18:26:24;;;;;;;15.40;11.32;;;6.10;79.10;;;;;;10863035;32;20400;-70
2022/01/12 18:32:27;;;;;;;21.08;11.35;;;5.90;79.00;;;;;;10942908;32;20030;-70
2022/01/12 18:38:31;;;;;;;18.02;11.98;;;5.90;78.90;;;;;;10979631;32;20382;-70
2022/01/12 18:44:33;;;;;;;16.35;11.52;;;5.90;78.90;;;;;;10979164;32;20062;-70
2022/01/12 18:50:36;;;;;;;18.67;14.13;;;5.90;78.60;;;;;;10941657;32;20023;-69
2022/01/12 18:56:39;;;;;;;18.95;14.60;;;5.70;78.90;;;;;;10941557;32;20027;-70
2022/01/12 19:02:44;;;;;;;24.05;18.40;;;5.50;78.80;;;;;;10941512;32;20031;-70
2022/01/12 19:08:46;;;;;;;26.75;17.70;;;5.50;79.00;;;;;;10948552;32;20014;-70
2022/01/12 19:14:50;;;;;;;31.95;23.45;;;5.50;78.90;;;;;;10948706;32;20046;-70
2022/01/12 19:20:53;;;;;;;37.13;23.10;;;5.50;78.70;;;;;;10948454;32;20171;-70
2022/01/12 19:26:55;;;;;;;31.83;22.77;;;5.50;78.70;;;;;;10948146;32;20065;-70
2022/01/12 19:32:57;;;;;;;33.38;25.05;;;5.50;79.10;;;;;;10947972;32;20046;-70
2022/01/12 19:38:59;;;;;;;36.20;28.17;;;5.40;79.10;;;;;;10947894;32;20019;-73
2022/01/12 19:45:03;;;;;;;39.55;30.70;;;5.30;79.10;;;;;;10943310;32;20061;-73
2022/01/12 19:51:06;;;;;;;36.25;26.70;;;5.30;78.80;;;;;;10947534;32;20027;-70
2022/01/12 19:57:24;;;;;;;33.38;26.10;;;5.30;78.90;;;;;;10945928;32;20022;-70
2022/01/12 20:03:36;;;;;;;32.10;22.65;;;5.10;79.20;;;;;;10947021;32;20039;-70
2022/01/12 20:09:38;;;;;;;32.42;22.35;;;4.90;79.10;;;;;;10946513;32;20037;-70
2022/01/12 20:15:40;;;;;;;36.70;27.60;;;5.00;79.10;;;;;;10946308;32;20061;-70
2022/01/12 20:22:01;;;;;;;34.10;24.23;;;4.80;78.80;;;;;;10946465;32;20429;-70
2022/01/12 20:28:06;;;;;;;41.58;26.95;;;4.80;79.10;;;;;;10943210;32;20066;-70
2022/01/12 20:34:09;;;;;;;48.97;32.90;;;4.80;79.00;;;;;;10946019;32;20023;-70
2022/01/12 20:40:14;;;;;;;66.20;38.97;;;4.80;79.00;;;;;;10941919;32;20043;-70
2022/01/12 20:46:17;;;;;;;66.72;40.30;;;4.60;79.20;;;;;;10943784;32;20031;-70
2022/01/12 20:52:21;;;;;;;74.85;46.70;;;4.70;79.30;;;;;;10943963;32;20427;-71
2022/01/12 20:58:24;;;;;;;70.00;45.75;;;4.70;79.00;;;;;;10944497;32;20081;-71
2022/01/12 21:04:27;;;;;;;59.25;38.90;;;4.70;79.40;;;;;;10944872;32;20027;-71
2022/01/12 21:10:29;;;;;;;55.38;36.45;;;4.60;79.50;;;;;;10944679;32;20339;-72
2022/01/12 21:16:32;;;;;;;58.00;35.45;;;4.60;79.40;;;;;;10944591;32;20046;-71
2022/01/12 21:22:34;;;;;;;65.30;38.75;;;4.60;79.20;;;;;;10943167;32;20049;-70
2022/01/12 21:28:39;;;;;;;72.97;48.80;;;4.60;79.10;;;;;;10943700;32;20113;-71
2022/01/12 21:34:51;;;;;;;48.70;34.28;;;4.50;79.10;;;;;;10943986;32;20020;-72
2022/01/12 21:41:14;;;;;;;60.42;41.95;;;4.50;79.00;;;;;;10942720;32;20050;-72
2022/01/12 21:47:17;;;;;;;49.33;32.75;;;4.50;78.90;;;;;;10943404;32;20049;-69
2022/01/12 21:53:19;;;;;;;45.88;30.55;;;4.40;78.80;;;;;;10941952;32;20323;-70
2022/01/12 21:59:22;;;;;;;44.47;30.10;;;4.30;78.80;;;;;;10943093;32;20422;-70
2022/01/12 22:05:24;;;;;;;38.70;29.10;;;4.20;78.60;;;;;;10942872;32;20027;-71
2022/01/12 22:11:27;;;;;;;46.80;33.60;;;3.90;79.30;;;;;;10942763;32;20390;-71
2022/01/12 22:17:29;;;;;;;44.83;33.00;;;4.00;79.60;;;;;;10942660;32;20069;-71
2022/01/12 22:23:31;;;;;;;56.20;37.30;;;4.10;80.30;;;;;;10942274;32;20085;-71
2022/01/12 22:29:34;;;;;;;42.55;31.02;;;4.10;81.00;;;;;;10941428;32;20061;-71
2022/01/12 22:35:36;;;;;;;32.42;25.35;;;4.10;81.00;;;;;;10942099;32;20048;-71
2022/01/12 22:41:39;;;;;;;38.92;27.30;;;4.10;80.50;;;;;;10938703;32;20027;-69
2022/01/12 22:47:41;;;;;;;52.72;39.42;;;4.00;80.20;;;;;;10941016;32;20023;-74
2022/01/12 22:53:44;;;;;;;37.00;25.33;;;4.00;79.90;;;;;;10941948;32;20097;-74
2022/01/12 22:59:48;;;;;;;43.45;28.80;;;4.00;79.40;;;;;;10941744;32;20441;-74
2022/01/12 23:05:50;;;;;;;45.00;30.75;;;3.90;79.50;;;;;;10941630;32;20391;-73
2022/01/12 23:11:52;;;;;;;37.05;25.75;;;3.90;80.00;;;;;;10941687;32;20015;-74
2022/01/12 23:17:55;;;;;;;42.95;28.73;;;3.70;79.70;;;;;;10941364;32;20343;-75
2022/01/12 23:23:59;;;;;;;55.45;36.70;;;3.70;80.10;;;;;;10940510;32;20395;-75
2022/01/12 23:30:01;;;;;;;42.53;28.65;;;3.80;80.60;;;;;;10941168;32;20050;-75
2022/01/12 23:42:45;;;;;;;52.90;40.10;;;3.60;80.30;;;;;;10941088;32;20026;-75
2022/01/12 23:49:01;;;;;;;58.17;43.60;;;3.60;80.10;;;;;;10936911;32;20493;-72
2022/01/12 23:55:09;;;;;;;52.97;37.95;;;3.60;80.20;;;;;;10945279;32;20100;-71
